createdAt,value
2023-03-06T00:00:24.475Z,9.242331
2023-03-06T00:01:24.458Z,9.242335
2023-03-06T00:02:24.447Z,9.242350
2023-03-06T00:03:24.521Z,9.242339
2023-03-06T00:04:24.436Z,9.242382
2023-03-06T00:05:24.538Z,9.242405
2023-03-06T00:06:24.431Z,9.242421
2023-03-06T00:07:24.428Z,9.242396
2023-03-06T00:08:24.408Z,9.242382
2023-03-06T00:09:24.409Z,9.242408
2023-03-06T00:10:24.643Z,9.242393
2023-03-06T00:11:24.389Z,9.242410
2023-03-06T00:12:24.380Z,9.242412
2023-03-06T00:13:24.394Z,9.242411
2023-03-06T00:14:24.378Z,9.242343
2023-03-06T00:15:24.398Z,9.242352
2023-03-06T00:16:25.390Z,9.242399
2023-03-06T00:17:24.351Z,9.242431
2023-03-06T00:18:24.344Z,9.242348
2023-03-06T00:19:24.355Z,9.242391
2023-03-06T00:20:24.377Z,9.242397
2023-03-06T00:21:24.342Z,9.242415
2023-03-06T00:22:24.332Z,9.242343
2023-03-06T00:23:24.318Z,9.242342
2023-03-06T00:24:24.338Z,9.242344
2023-03-06T00:25:24.392Z,9.242334
2023-03-06T00:26:24.306Z,9.242330
2023-03-06T00:27:24.304Z,9.242344
2023-03-06T00:28:24.304Z,9.242412
2023-03-06T00:29:24.272Z,9.242411
2023-03-06T00:30:24.315Z,9.242336
2023-03-06T00:31:24.291Z,9.242360
2023-03-06T00:32:24.310Z,9.242395
2023-03-06T00:33:24.263Z,9.242386
2023-03-06T00:34:24.246Z,9.242365
2023-03-06T00:35:24.332Z,9.242356
2023-03-06T00:36:24.216Z,9.242393
2023-03-06T00:37:25.219Z,9.242406
2023-03-06T00:38:24.220Z,9.242398
2023-03-06T00:39:24.216Z,9.242361
2023-03-06T00:40:24.217Z,9.242367
2023-03-06T00:41:24.204Z,9.242382
2023-03-06T00:42:24.195Z,9.242391
2023-03-06T00:43:24.188Z,9.242420
2023-03-06T00:44:24.182Z,9.242432
2023-03-06T00:45:24.265Z,9.242513
2023-03-06T00:46:24.172Z,9.242496
2023-03-06T00:47:24.160Z,9.242470
2023-03-06T00:48:24.151Z,9.242368
2023-03-06T00:49:24.149Z,9.242436
2023-03-06T00:50:24.174Z,9.242453
2023-03-06T00:51:24.140Z,9.242395
2023-03-06T00:52:24.121Z,9.242403
2023-03-06T00:53:24.138Z,9.242468
2023-03-06T00:54:24.117Z,9.242527
2023-03-06T00:55:24.153Z,9.242537
2023-03-06T00:56:24.110Z,9.242544
2023-03-06T00:57:24.124Z,9.242537
2023-03-06T00:58:24.094Z,9.242544
2023-03-06T00:59:24.081Z,9.242430
2023-03-06T01:00:24.110Z,9.242461
2023-03-06T01:01:24.078Z,9.242475
2023-03-06T01:02:24.097Z,9.242500
2023-03-06T01:03:24.082Z,9.242488
2023-03-06T01:04:24.046Z,9.242477
2023-03-06T01:05:24.118Z,9.242447
2023-03-06T01:06:24.122Z,9.242529
2023-03-06T01:07:24.041Z,9.242451
2023-03-06T01:08:24.054Z,9.242502
2023-03-06T01:09:24.020Z,9.242573
2023-03-06T01:10:24.035Z,9.242489
2023-03-06T01:11:24.033Z,9.242465
2023-03-06T01:12:24.025Z,9.242423
2023-03-06T01:13:23.998Z,9.242434
2023-03-06T01:14:23.987Z,9.242447
2023-03-06T01:15:23.984Z,9.242445
2023-03-06T01:16:24.049Z,9.242434
2023-03-06T01:17:23.969Z,9.242467
2023-03-06T01:18:23.968Z,9.242465
2023-03-06T01:19:23.958Z,9.242467
2023-03-06T01:20:23.966Z,9.242478
2023-03-06T01:21:23.977Z,9.242496
2023-03-06T01:22:23.940Z,9.242454
2023-03-06T01:23:23.947Z,9.242437
2023-03-06T01:24:23.951Z,9.242444
2023-03-06T01:25:24.294Z,9.242525
2023-03-06T01:26:23.968Z,9.242497
2023-03-06T01:27:23.917Z,9.242426
2023-03-06T01:28:23.903Z,9.242432
2023-03-06T01:29:23.904Z,9.242436
2023-03-06T01:30:23.896Z,9.242394
2023-03-06T01:31:23.920Z,9.242588
2023-03-06T01:32:23.942Z,9.242640
2023-03-06T01:33:23.868Z,9.242537
2023-03-06T01:34:24.877Z,9.242403
2023-03-06T01:35:23.925Z,9.242383
2023-03-06T01:36:23.881Z,9.242089
2023-03-06T01:37:23.872Z,9.242114
2023-03-06T01:38:23.854Z,9.242325
2023-03-06T01:39:23.844Z,9.242443
2023-03-06T01:40:23.834Z,9.242348
2023-03-06T01:41:23.845Z,9.242317
2023-03-06T01:42:23.826Z,9.242399
2023-03-06T01:43:23.822Z,9.242258
2023-03-06T01:44:23.811Z,9.242405
2023-03-06T01:45:23.799Z,9.242493
2023-03-06T01:46:23.909Z,9.242400
2023-03-06T01:47:23.786Z,9.242546
2023-03-06T01:48:23.784Z,9.242439
2023-03-06T01:49:23.781Z,9.242424
2023-03-06T01:50:23.768Z,9.242423
2023-03-06T01:51:23.782Z,9.242384
2023-03-06T01:52:23.766Z,9.242229
2023-03-06T01:53:23.756Z,9.242444
2023-03-06T01:54:23.788Z,9.242504
2023-03-06T01:55:23.760Z,9.242458
2023-03-06T01:56:23.769Z,9.242414
2023-03-06T01:57:23.746Z,9.242447
2023-03-06T01:58:23.849Z,9.242336
2023-03-06T01:59:23.792Z,9.242431
2023-03-06T02:00:23.760Z,9.242438
2023-03-06T02:01:23.998Z,9.242435
2023-03-06T02:02:23.845Z,9.242395
2023-03-06T02:03:23.780Z,9.242476
2023-03-06T02:04:23.723Z,9.242427
2023-03-06T02:05:23.725Z,9.242345
2023-03-06T02:06:23.715Z,9.242340
2023-03-06T02:07:24.695Z,9.242368
2023-03-06T02:08:23.720Z,9.242341
2023-03-06T02:09:23.733Z,9.242422
2023-03-06T02:10:23.695Z,9.242407
2023-03-06T02:11:23.886Z,9.242426
2023-03-06T02:12:23.788Z,9.242418
2023-03-06T02:13:23.753Z,9.242393
2023-03-06T02:14:23.760Z,9.242401
2023-03-06T02:15:23.811Z,9.242308
2023-03-06T02:16:23.794Z,9.242435
2023-03-06T02:17:23.771Z,9.242482
2023-03-06T02:18:23.749Z,9.242367
2023-03-06T02:19:23.711Z,9.242286
2023-03-06T02:20:23.675Z,9.242333
2023-03-06T02:21:23.833Z,9.242366
2023-03-06T02:22:23.742Z,9.242375
2023-03-06T02:23:23.675Z,9.242374
2023-03-06T02:24:23.732Z,9.242358
2023-03-06T02:25:23.771Z,9.242387
2023-03-06T02:26:23.850Z,9.242393
2023-03-06T02:27:23.759Z,9.242350
2023-03-06T02:28:23.713Z,9.242406
2023-03-06T02:29:23.703Z,9.242382
2023-03-06T02:30:23.599Z,9.242405
2023-03-06T02:31:23.803Z,9.242346
2023-03-06T02:32:23.690Z,9.242378
2023-03-06T02:33:23.661Z,9.242457
2023-03-06T02:34:23.650Z,9.242436
2023-03-06T02:35:23.746Z,9.242167
2023-03-06T02:36:23.752Z,9.242213
2023-03-06T02:37:23.529Z,9.242240
2023-03-06T02:38:23.525Z,9.242306
2023-03-06T02:39:23.569Z,9.242265
2023-03-06T02:40:23.464Z,9.242302
2023-03-06T02:41:23.468Z,9.242364
2023-03-06T02:42:23.460Z,9.242358
2023-03-06T02:43:23.443Z,9.242327
2023-03-06T02:44:23.465Z,9.242350
2023-03-06T02:45:23.422Z,9.242311
2023-03-06T02:46:23.433Z,9.242308
2023-03-06T02:47:23.461Z,9.242237
2023-03-06T02:48:23.401Z,9.242255
2023-03-06T02:49:26.080Z,9.242212
2023-03-06T02:50:23.413Z,9.242248
2023-03-06T02:51:23.443Z,9.242233
2023-03-06T02:52:23.403Z,9.242251
2023-03-06T02:53:23.396Z,9.242300
2023-03-06T02:54:23.419Z,9.242347
2023-03-06T02:55:23.421Z,9.242332
2023-03-06T02:56:23.485Z,9.242300
2023-03-06T02:57:23.371Z,9.242360
2023-03-06T02:58:23.366Z,9.242388
2023-03-06T02:59:23.381Z,9.242378
2023-03-06T03:00:23.410Z,9.242427
2023-03-06T03:01:23.582Z,9.242340
2023-03-06T03:02:23.345Z,9.242332
2023-03-06T03:03:23.352Z,9.242395
2023-03-06T03:04:23.355Z,9.242382
2023-03-06T03:05:23.341Z,9.242363
2023-03-06T03:06:23.345Z,9.242390
2023-03-06T03:07:23.312Z,9.242428
2023-03-06T03:08:23.292Z,9.242452
2023-03-06T03:09:23.316Z,9.242451
2023-03-06T03:10:23.326Z,9.242413
2023-03-06T03:11:23.298Z,9.242415
2023-03-06T03:12:23.255Z,9.242384
2023-03-06T03:13:23.304Z,9.242373
2023-03-06T03:14:23.288Z,9.242308
2023-03-06T03:15:23.310Z,9.242293
2023-03-06T03:16:23.266Z,9.242731
2023-03-06T03:17:23.932Z,9.242394
2023-03-06T03:18:23.305Z,9.242348
2023-03-06T03:19:23.264Z,9.242291
2023-03-06T03:20:23.321Z,9.242273
2023-03-06T03:21:23.273Z,9.242354
2023-03-06T03:22:23.886Z,9.242431
2023-03-06T03:23:23.213Z,9.242401
2023-03-06T03:24:23.281Z,9.242408
2023-03-06T03:25:23.180Z,9.242412
2023-03-06T03:26:23.246Z,9.242421
2023-03-06T03:27:23.214Z,9.242451
2023-03-06T03:28:23.184Z,9.242343
2023-03-06T03:29:23.178Z,9.242408
2023-03-06T03:30:23.214Z,9.242428
2023-03-06T03:31:23.281Z,9.242513
2023-03-06T03:32:23.267Z,9.242245
2023-03-06T03:33:23.146Z,9.242254
2023-03-06T03:34:23.159Z,9.242393
2023-03-06T03:35:23.953Z,9.242374
2023-03-06T03:36:23.197Z,9.242474
2023-03-06T03:37:23.132Z,9.242304
2023-03-06T03:38:23.913Z,9.242355
2023-03-06T03:39:23.108Z,9.242334
2023-03-06T03:40:23.176Z,9.242364
2023-03-06T03:41:23.165Z,9.242407
2023-03-06T03:42:23.125Z,9.242528
2023-03-06T03:43:23.144Z,9.242394
2023-03-06T03:44:23.130Z,9.242466
2023-03-06T03:45:23.093Z,9.242394
2023-03-06T03:46:23.148Z,9.242401
2023-03-06T03:47:23.064Z,9.242422
2023-03-06T03:48:23.072Z,9.242374
2023-03-06T03:49:23.117Z,9.242376
2023-03-06T03:50:23.055Z,9.242357
2023-03-06T03:51:23.062Z,9.242346
2023-03-06T03:52:23.079Z,9.242414
2023-03-06T03:53:23.027Z,9.242389
2023-03-06T03:54:23.032Z,9.242366
2023-03-06T03:55:23.035Z,9.242361
2023-03-06T03:56:23.018Z,9.242442
2023-03-06T03:57:23.010Z,9.242415
2023-03-06T03:58:23.007Z,9.242348
2023-03-06T03:59:23.037Z,9.242394
2023-03-06T04:00:23.026Z,9.242427
2023-03-06T04:01:23.022Z,9.242317
2023-03-06T04:02:23.016Z,9.242368
2023-03-06T04:03:22.945Z,9.242421
2023-03-06T04:04:22.976Z,9.242470
2023-03-06T04:05:22.937Z,9.242407
2023-03-06T04:06:23.012Z,9.242324
2023-03-06T04:07:22.976Z,9.242388
2023-03-06T04:08:22.909Z,9.242428
2023-03-06T04:09:22.895Z,9.242391
2023-03-06T04:10:22.897Z,9.242392
2023-03-06T04:11:22.900Z,9.242382
2023-03-06T04:12:22.887Z,9.242315
2023-03-06T04:13:22.876Z,9.242324
2023-03-06T04:14:22.860Z,9.242455
2023-03-06T04:15:22.864Z,9.242418
2023-03-06T04:16:22.979Z,9.242399
2023-03-06T04:17:22.845Z,9.242449
2023-03-06T04:18:22.840Z,9.242441
2023-03-06T04:19:22.857Z,9.242360
2023-03-06T04:20:22.826Z,9.242359
2023-03-06T04:21:22.903Z,9.242455
2023-03-06T04:22:22.852Z,9.242373
2023-03-06T04:23:22.866Z,9.242347
2023-03-06T04:24:22.868Z,9.242406
2023-03-06T04:25:22.851Z,9.242487
2023-03-06T04:26:23.451Z,9.242401
2023-03-06T04:27:22.790Z,9.242336
2023-03-06T04:28:23.361Z,9.242270
2023-03-06T04:29:22.771Z,9.242216
2023-03-06T04:30:22.833Z,9.242306
2023-03-06T04:31:22.806Z,9.242428
2023-03-06T04:32:22.805Z,9.242485
2023-03-06T04:33:22.775Z,9.242538
2023-03-06T04:34:22.778Z,9.242436
2023-03-06T04:35:22.786Z,9.242399
2023-03-06T04:36:22.790Z,9.242484
2023-03-06T04:37:22.797Z,9.242522
2023-03-06T04:38:22.746Z,9.242537
2023-03-06T04:39:22.745Z,9.242444
2023-03-06T04:40:22.737Z,9.242422
2023-03-06T04:41:22.694Z,9.242441
2023-03-06T04:42:22.717Z,9.242499
2023-03-06T04:43:22.678Z,9.242496
2023-03-06T04:44:22.677Z,9.242478
2023-03-06T04:45:22.738Z,9.242482
2023-03-06T04:46:22.683Z,9.242453
2023-03-06T04:47:22.656Z,9.242446
2023-03-06T04:48:22.699Z,9.242435
2023-03-06T04:49:23.374Z,9.242434
2023-03-06T04:50:22.844Z,9.242415
2023-03-06T04:51:23.410Z,9.242455
2023-03-06T04:52:22.672Z,9.242455
2023-03-06T04:53:22.691Z,9.242473
2023-03-06T04:54:22.676Z,9.242438
2023-03-06T04:55:22.664Z,9.242350
2023-03-06T04:56:22.610Z,9.242415
2023-03-06T04:57:22.904Z,9.242455
2023-03-06T04:58:22.652Z,9.242692
2023-03-06T04:59:22.616Z,9.242439
2023-03-06T05:00:22.610Z,9.242462
2023-03-06T05:01:22.635Z,9.242351
2023-03-06T05:02:22.746Z,9.242460
2023-03-06T05:03:22.644Z,9.242418
2023-03-06T05:04:22.608Z,9.242511
2023-03-06T05:05:22.602Z,9.242433
2023-03-06T05:06:22.617Z,9.242332
2023-03-06T05:07:22.586Z,9.242295
2023-03-06T05:08:22.636Z,9.242352
2023-03-06T05:09:22.616Z,9.242308
2023-03-06T05:10:22.596Z,9.242240
2023-03-06T05:11:22.611Z,9.242140
2023-03-06T05:12:22.574Z,9.242269
2023-03-06T05:13:22.701Z,9.242452
2023-03-06T05:14:22.551Z,9.242338
2023-03-06T05:15:22.565Z,9.242267
2023-03-06T05:16:22.663Z,9.242267
2023-03-06T05:17:22.642Z,9.242257
2023-03-06T05:18:22.661Z,9.242382
2023-03-06T05:19:22.557Z,9.242285
2023-03-06T05:20:22.577Z,9.242409
2023-03-06T05:21:22.509Z,9.242493
2023-03-06T05:22:22.552Z,9.242448
2023-03-06T05:23:22.483Z,9.241960
2023-03-06T05:24:22.561Z,9.242083
2023-03-06T05:25:22.565Z,9.242311
2023-03-06T05:26:22.544Z,9.242302
2023-03-06T05:27:22.566Z,9.242216
2023-03-06T05:28:22.514Z,9.242314
2023-03-06T05:29:22.516Z,9.242141
2023-03-06T05:30:22.387Z,9.242341
2023-03-06T05:31:22.400Z,9.242392
2023-03-06T05:32:22.589Z,9.242203
2023-03-06T05:33:22.443Z,9.242225
2023-03-06T05:34:23.366Z,9.242234
2023-03-06T05:35:22.406Z,9.242397
2023-03-06T05:36:22.616Z,9.242382
2023-03-06T05:37:22.365Z,9.242344
2023-03-06T05:38:22.334Z,9.242560
2023-03-06T05:39:22.333Z,9.242566
2023-03-06T05:40:22.350Z,9.242466
2023-03-06T05:41:22.325Z,9.242471
2023-03-06T05:42:23.342Z,9.242451
2023-03-06T05:43:22.322Z,9.242415
2023-03-06T05:44:22.307Z,9.242429
2023-03-06T05:45:22.305Z,9.242478
2023-03-06T05:46:22.338Z,9.242359
2023-03-06T05:47:22.310Z,9.242405
2023-03-06T05:48:22.277Z,9.242418
2023-03-06T05:49:22.271Z,9.242371
2023-03-06T05:50:22.272Z,9.242330
2023-03-06T05:51:22.258Z,9.242317
2023-03-06T05:52:22.274Z,9.242301
2023-03-06T05:53:22.242Z,9.242378
2023-03-06T05:54:22.239Z,9.242366
2023-03-06T05:55:22.236Z,9.242418
2023-03-06T05:56:22.253Z,9.242455
2023-03-06T05:57:22.249Z,9.242515
2023-03-06T05:58:22.246Z,9.242353
2023-03-06T05:59:22.218Z,9.242388
2023-03-06T06:00:22.202Z,9.242373
2023-03-06T06:01:22.206Z,9.242313
2023-03-06T06:02:22.263Z,9.242348
2023-03-06T06:03:22.228Z,9.242363
2023-03-06T06:04:22.176Z,9.242400
2023-03-06T06:05:22.174Z,9.242244
2023-03-06T06:06:22.158Z,9.242117
2023-03-06T06:07:22.170Z,9.242286
2023-03-06T06:08:22.158Z,9.242290
2023-03-06T06:09:22.143Z,9.242293
2023-03-06T06:10:22.130Z,9.242266
2023-03-06T06:11:22.133Z,9.242417
2023-03-06T06:12:22.147Z,9.242328
2023-03-06T06:13:22.116Z,9.242232
2023-03-06T06:14:22.108Z,9.242079
2023-03-06T06:15:22.101Z,9.241904
2023-03-06T06:16:22.095Z,9.241630
2023-03-06T06:17:22.116Z,9.241685
2023-03-06T06:18:22.112Z,9.241933
2023-03-06T06:19:22.080Z,9.242151
2023-03-06T06:20:22.081Z,9.242027
2023-03-06T06:21:22.066Z,9.241888
2023-03-06T06:22:22.085Z,9.242395
2023-03-06T06:23:22.056Z,9.242724
2023-03-06T06:24:22.047Z,9.242589
2023-03-06T06:25:22.041Z,9.242540
2023-03-06T06:26:22.044Z,9.242362
2023-03-06T06:27:22.049Z,9.242419
2023-03-06T06:28:22.028Z,9.242476
2023-03-06T06:29:22.017Z,9.242476
2023-03-06T06:30:22.014Z,9.242410
2023-03-06T06:31:22.027Z,9.242433
2023-03-06T06:32:22.278Z,9.242473
2023-03-06T06:33:21.986Z,9.242459
2023-03-06T06:34:21.988Z,9.242233
2023-03-06T06:35:22.007Z,9.242200
2023-03-06T06:36:21.977Z,9.242368
2023-03-06T06:37:21.984Z,9.242376
2023-03-06T06:38:21.961Z,9.242370
2023-03-06T06:39:21.947Z,9.242426
2023-03-06T06:40:21.944Z,9.242435
2023-03-06T06:41:57.028Z,9.242384
2023-03-06T06:42:33.203Z,9.242351
2023-03-06T06:43:23.917Z,9.242154
2023-03-06T06:44:21.906Z,9.242268
2023-03-06T06:45:21.908Z,9.242441
2023-03-06T06:46:59.279Z,9.242355
2023-03-06T06:47:25.412Z,9.242390
2023-03-06T06:48:22.946Z,9.242405
2023-03-06T06:49:21.880Z,9.242339
2023-03-06T06:50:21.875Z,9.242354
2023-03-06T06:51:21.868Z,9.242328
2023-03-06T06:52:21.887Z,9.242380
2023-03-06T06:53:21.875Z,9.242344
2023-03-06T06:54:21.840Z,9.242389
2023-03-06T06:55:21.848Z,9.242413
2023-03-06T06:56:21.841Z,9.242427
2023-03-06T06:57:21.858Z,9.242378
2023-03-06T06:58:21.844Z,9.242502
2023-03-06T06:59:21.811Z,9.242451
2023-03-06T07:00:21.802Z,9.242481
2023-03-06T07:01:21.810Z,9.242447
2023-03-06T07:02:21.822Z,9.242481
2023-03-06T07:03:21.786Z,9.242474
2023-03-06T07:04:21.779Z,9.242418
2023-03-06T07:05:22.194Z,9.242501
2023-03-06T07:06:21.776Z,9.242497
2023-03-06T07:07:21.777Z,9.242449
2023-03-06T07:08:21.764Z,9.242469
2023-03-06T07:09:21.747Z,9.242440
2023-03-06T07:10:21.745Z,9.242460
2023-03-06T07:11:21.740Z,9.242441
2023-03-06T07:12:21.754Z,9.242506
2023-03-06T07:13:21.729Z,9.242430
2023-03-06T07:14:21.740Z,9.242529
2023-03-06T07:15:21.726Z,9.242476
2023-03-06T07:16:21.747Z,9.242502
2023-03-06T07:17:21.730Z,9.242502
2023-03-06T07:18:21.695Z,9.242364
2023-03-06T07:19:21.690Z,9.242424
2023-03-06T07:20:21.670Z,9.242458
2023-03-06T07:21:21.673Z,9.242451
2023-03-06T07:22:21.702Z,9.242522
2023-03-06T07:23:21.663Z,9.242456
2023-03-06T07:24:21.656Z,9.242461
2023-03-06T07:25:21.659Z,9.242432
2023-03-06T07:26:21.647Z,9.242435
2023-03-06T07:27:21.635Z,9.242446
2023-03-06T07:28:21.670Z,9.242467
2023-03-06T07:29:21.622Z,9.242395
2023-03-06T07:30:21.636Z,9.242334
2023-03-06T07:31:22.772Z,9.242397
2023-03-06T07:32:21.640Z,9.242394
2023-03-06T07:33:21.597Z,9.242457
2023-03-06T07:34:21.581Z,9.242501
2023-03-06T07:35:21.608Z,9.242458
2023-03-06T07:36:21.572Z,9.242405
2023-03-06T07:37:21.572Z,9.242425
2023-03-06T07:38:21.589Z,9.242480
2023-03-06T07:39:21.617Z,9.242309
2023-03-06T07:40:21.550Z,9.242285
2023-03-06T07:41:22.731Z,9.242340
2023-03-06T07:42:22.571Z,9.242426
2023-03-06T07:43:21.532Z,9.242522
2023-03-06T07:44:21.531Z,9.242367
2023-03-06T07:45:21.523Z,9.242309
2023-03-06T07:46:21.564Z,9.242270
2023-03-06T07:47:21.513Z,9.242270
2023-03-06T07:48:21.516Z,9.242411
2023-03-06T07:49:21.522Z,9.242316
2023-03-06T07:50:21.483Z,9.242368
2023-03-06T07:51:21.478Z,9.242321
2023-03-06T07:52:21.470Z,9.242279
2023-03-06T07:53:21.476Z,9.242318
2023-03-06T07:54:21.452Z,9.242351
2023-03-06T07:55:21.453Z,9.242347
2023-03-06T07:56:21.447Z,9.242376
2023-03-06T07:57:21.433Z,9.242409
2023-03-06T07:58:21.443Z,9.242352
2023-03-06T07:59:21.496Z,9.242436
2023-03-06T08:00:21.405Z,9.242414
2023-03-06T08:01:21.411Z,9.242399
2023-03-06T08:02:21.401Z,9.242332
2023-03-06T08:03:21.416Z,9.242461
2023-03-06T08:04:21.393Z,9.242279
2023-03-06T08:05:21.376Z,9.242340
2023-03-06T08:06:21.379Z,9.241815
2023-03-06T08:07:21.388Z,9.241997
2023-03-06T08:08:21.395Z,9.242159
2023-03-06T08:09:21.350Z,9.242457
2023-03-06T08:10:21.356Z,9.242478
2023-03-06T08:11:21.337Z,9.242358
2023-03-06T08:12:21.341Z,9.242488
2023-03-06T08:13:21.345Z,9.242663
2023-03-06T08:14:21.302Z,9.242510
2023-03-06T08:15:21.322Z,9.242427
2023-03-06T08:16:21.345Z,9.242382
2023-03-06T08:17:21.312Z,9.242391
2023-03-06T08:18:21.318Z,9.242408
2023-03-06T08:19:21.279Z,9.242412
2023-03-06T08:20:21.265Z,9.242384
2023-03-06T08:21:21.261Z,9.242375
2023-03-06T08:22:21.256Z,9.242406
2023-03-06T08:23:21.271Z,9.242414
2023-03-06T08:24:21.245Z,9.242499
2023-03-06T08:25:21.234Z,9.242487
2023-03-06T08:26:21.233Z,9.242494
2023-03-06T08:27:21.243Z,9.242456
2023-03-06T08:28:21.230Z,9.242455
2023-03-06T08:29:21.204Z,9.242469
2023-03-06T08:30:21.188Z,9.242364
2023-03-06T08:31:22.202Z,9.242435
2023-03-06T08:32:21.345Z,9.242446
2023-03-06T08:33:21.191Z,9.242422
2023-03-06T08:34:21.168Z,9.242441
2023-03-06T08:35:21.176Z,9.242517
2023-03-06T08:36:21.158Z,9.242466
2023-03-06T08:37:21.260Z,9.242409
2023-03-06T08:38:21.166Z,9.242389
2023-03-06T08:39:21.172Z,9.242333
2023-03-06T08:40:21.135Z,9.242387
2023-03-06T08:41:21.129Z,9.242368
2023-03-06T08:42:21.106Z,9.242401
2023-03-06T08:43:21.134Z,9.242357
2023-03-06T08:44:21.106Z,9.242370
2023-03-06T08:45:21.146Z,9.242390
2023-03-06T08:46:21.090Z,9.242456
2023-03-06T08:47:21.084Z,9.242421
2023-03-06T08:48:21.084Z,9.242445
2023-03-06T08:49:21.066Z,9.242439
2023-03-06T08:50:21.062Z,9.242476
2023-03-06T08:51:21.080Z,9.242477
2023-03-06T08:52:21.058Z,9.242420
2023-03-06T08:53:22.718Z,9.242438
2023-03-06T08:54:22.020Z,9.242398
2023-03-06T08:55:21.015Z,9.242450
2023-03-06T08:56:21.012Z,9.242466
2023-03-06T08:57:21.018Z,9.242437
2023-03-06T08:58:21.033Z,9.242394
2023-03-06T08:59:20.997Z,9.242415
2023-03-06T09:00:21.029Z,9.242449
2023-03-06T09:01:21.076Z,9.242460
2023-03-06T09:02:21.041Z,9.242466
2023-03-06T09:03:20.979Z,9.242410
2023-03-06T09:04:20.947Z,9.242451
2023-03-06T09:05:20.949Z,9.242457
2023-03-06T09:06:20.939Z,9.242415
2023-03-06T09:07:20.935Z,9.242425
2023-03-06T09:08:20.949Z,9.242467
2023-03-06T09:09:20.917Z,9.242386
2023-03-06T09:10:20.934Z,9.242518
2023-03-06T09:11:20.917Z,9.242493
2023-03-06T09:12:21.921Z,9.242447
2023-03-06T09:13:20.908Z,9.242483
2023-03-06T09:14:20.881Z,9.242443
2023-03-06T09:15:20.924Z,9.242413
2023-03-06T09:16:20.898Z,9.242444
2023-03-06T09:17:20.928Z,9.242440
2023-03-06T09:18:20.871Z,9.242390
2023-03-06T09:19:20.853Z,9.242480
2023-03-06T09:20:20.843Z,9.242489
2023-03-06T09:21:20.865Z,9.242435
2023-03-06T09:22:21.784Z,9.242439
2023-03-06T09:23:20.857Z,9.242467
2023-03-06T09:24:20.812Z,9.242399
2023-03-06T09:25:20.813Z,9.242420
2023-03-06T09:26:20.794Z,9.242414
2023-03-06T09:27:20.817Z,9.242433
2023-03-06T09:28:20.810Z,9.242427
2023-03-06T09:29:20.794Z,9.242436
2023-03-06T09:30:20.781Z,9.242475
2023-03-06T09:31:20.765Z,9.242486
2023-03-06T09:32:21.791Z,9.242443
2023-03-06T09:33:20.789Z,9.242400
2023-03-06T09:34:20.756Z,9.242488
2023-03-06T09:35:20.757Z,9.242485
2023-03-06T09:36:20.742Z,9.242438
2023-03-06T09:37:20.730Z,9.242401
2023-03-06T09:38:20.746Z,9.242398
2023-03-06T09:39:20.767Z,9.242430
2023-03-06T09:40:20.706Z,9.242548
2023-03-06T09:41:20.725Z,9.242487
2023-03-06T09:42:20.693Z,9.242459
2023-03-06T09:43:20.707Z,9.242451
2023-03-06T09:44:20.678Z,9.242377
2023-03-06T09:45:21.675Z,9.242388
2023-03-06T09:46:20.777Z,9.242414
2023-03-06T09:47:20.655Z,9.242448
2023-03-06T09:48:20.682Z,9.242498
2023-03-06T09:49:20.643Z,9.242488
2023-03-06T09:50:20.634Z,9.242535
2023-03-06T09:51:20.625Z,9.242425
2023-03-06T09:52:20.612Z,9.242532
2023-03-06T09:53:20.665Z,9.242458
2023-03-06T09:54:20.612Z,9.242437
2023-03-06T09:55:20.605Z,9.242476
2023-03-06T09:56:20.600Z,9.242471
2023-03-06T09:57:20.597Z,9.242457
2023-03-06T09:58:20.619Z,9.242443
2023-03-06T09:59:20.570Z,9.242459
2023-03-06T10:00:20.562Z,9.242387
2023-03-06T10:01:20.566Z,9.242389
2023-03-06T10:02:20.677Z,9.242425
2023-03-06T10:03:20.604Z,9.242304
2023-03-06T10:04:20.526Z,9.242459
2023-03-06T10:05:20.558Z,9.242436
2023-03-06T10:06:20.564Z,9.242395
2023-03-06T10:07:20.578Z,9.242473
2023-03-06T10:08:20.509Z,9.242445
2023-03-06T10:09:20.511Z,9.242472
2023-03-06T10:10:20.495Z,9.242461
2023-03-06T10:11:20.481Z,9.242439
2023-03-06T10:12:21.096Z,9.242475
2023-03-06T10:13:20.617Z,9.242454
2023-03-06T10:14:20.495Z,9.242433
2023-03-06T10:15:20.478Z,9.242423
2023-03-06T10:16:20.449Z,9.242385
2023-03-06T10:17:20.449Z,9.242385
2023-03-06T10:18:21.437Z,9.242346
2023-03-06T10:19:20.486Z,9.242382
2023-03-06T10:20:20.440Z,9.242410
2023-03-06T10:21:20.431Z,9.242395
2023-03-06T10:22:20.442Z,9.242401
2023-03-06T10:23:20.404Z,9.242384
2023-03-06T10:24:20.418Z,9.242422
2023-03-06T10:25:20.410Z,9.242368
2023-03-06T10:26:20.522Z,9.242463
2023-03-06T10:27:20.429Z,9.242385
2023-03-06T10:28:20.420Z,9.242365
2023-03-06T10:29:20.415Z,9.242333
2023-03-06T10:30:20.362Z,9.242399
2023-03-06T10:31:20.383Z,9.242382
2023-03-06T10:32:20.399Z,9.242350
2023-03-06T10:33:20.412Z,9.242358
2023-03-06T10:34:20.375Z,9.242324
2023-03-06T10:35:20.396Z,9.242340
2023-03-06T10:36:20.349Z,9.242327
2023-03-06T10:37:20.309Z,9.242352
2023-03-06T10:38:20.310Z,9.242325
2023-03-06T10:39:20.321Z,9.242290
2023-03-06T10:40:20.411Z,9.242310
2023-03-06T10:41:20.312Z,9.242288
2023-03-06T10:42:20.280Z,9.242268
2023-03-06T10:43:20.269Z,9.242312
2023-03-06T10:44:20.311Z,9.242267
2023-03-06T10:45:21.322Z,9.242348
2023-03-06T10:46:20.267Z,9.242353
2023-03-06T10:47:20.261Z,9.242348
2023-03-06T10:48:20.242Z,9.242366
2023-03-06T10:49:20.263Z,9.242366
2023-03-06T10:50:20.266Z,9.242378
2023-03-06T10:51:20.234Z,9.242364
2023-03-06T10:52:20.204Z,9.242275
2023-03-06T10:53:20.200Z,9.242305
2023-03-06T10:54:20.441Z,9.242344
2023-03-06T10:55:20.183Z,9.242382
2023-03-06T10:56:20.226Z,9.242347
2023-03-06T10:57:20.174Z,9.242378
2023-03-06T10:58:20.166Z,9.242354
2023-03-06T10:59:20.173Z,9.242408
2023-03-06T11:00:20.709Z,9.242378
2023-03-06T11:01:20.238Z,9.242375
2023-03-06T11:02:20.142Z,9.242419
2023-03-06T11:03:20.127Z,9.242351
2023-03-06T11:04:20.185Z,9.242295
2023-03-06T11:05:21.127Z,9.242265
2023-03-06T11:06:20.120Z,9.242418
2023-03-06T11:07:20.135Z,9.242374
2023-03-06T11:08:20.098Z,9.242336
2023-03-06T11:09:20.102Z,9.242392
2023-03-06T11:10:20.127Z,9.242393
2023-03-06T11:11:35.003Z,9.242387
2023-03-06T11:12:22.075Z,9.242410
2023-03-06T11:13:20.127Z,9.242392
2023-03-06T11:14:20.106Z,9.242332
2023-03-06T11:15:20.051Z,9.242380
2023-03-06T11:16:20.081Z,9.242418
2023-03-06T11:17:20.175Z,9.242373
2023-03-06T11:18:20.035Z,9.242353
2023-03-06T11:19:20.048Z,9.242431
2023-03-06T11:20:20.026Z,9.242445
2023-03-06T11:21:20.000Z,9.242384
2023-03-06T11:22:19.994Z,9.242380
2023-03-06T11:23:20.012Z,9.242433
2023-03-06T11:24:20.032Z,9.242535
2023-03-06T11:25:20.002Z,9.242563
2023-03-06T11:26:20.001Z,9.242580
2023-03-06T11:27:19.959Z,9.242591
2023-03-06T11:28:19.951Z,9.242514
2023-03-06T11:29:20.004Z,9.242513
2023-03-06T11:30:19.941Z,9.242449
2023-03-06T11:31:19.973Z,9.242390
2023-03-06T11:32:19.941Z,9.242445
2023-03-06T11:33:19.930Z,9.242446
2023-03-06T11:34:19.975Z,9.242522
2023-03-06T11:35:19.914Z,9.242537
2023-03-06T11:36:19.897Z,9.242551
2023-03-06T11:37:19.904Z,9.242503
2023-03-06T11:38:19.910Z,9.242501
2023-03-06T11:39:19.892Z,9.242451
2023-03-06T11:40:19.871Z,9.242472
2023-03-06T11:41:19.869Z,9.242425
2023-03-06T11:42:19.852Z,9.242446
2023-03-06T11:43:19.846Z,9.242478
2023-03-06T11:44:19.859Z,9.242477